Cleveland, OH (44142)

7:47 AM EDT on July 24, 2016 (GMT -0400)
Brook Park | | Change Station
Active Advisory: Heat Advisory

Elev 832 ft 41.39 °N, 81.79 °W | Updated 16 seconds ago

Mostly Cloudy
Mostly Cloudy
76.9 °F
Feels Like 79 °F
N
2.4
Wind Variable Wind from South
Gusts 3.5 mph

Today
High -- | Low -- °F
--% Chance of Precip.
Yesterday
High -- | Low -- °F
Precip. -- in
Pressure 29.99 in
Visibility 10.0 miles
Clouds Scattered Clouds 6000 ft
Mostly Cloudy 25000 ft
Heat Index 79 °F
Dew Point 63 °F
Humidity 63%
Rainfall 0.00 in
Snow Depth Not available.
6:15 AM 8:51 PM
Waning Gibbous, 77% visible
METAR KCLE 241051Z 17005KT 10SM SCT060 BKN250 24/16 A3001 RMK AO2 SLP156 T02390161 $
Pressure 29.99 in
Visibility 10.0 miles
Clouds Scattered Clouds 6000 ft
Mostly Cloudy 25000 ft
Heat Index 79 °F
Dew Point 63 °F
Humidity 63%
Rainfall 0.00 in
Snow Depth Not available.
6:15 AM 8:51 PM
Waning Gibbous, 77% visible
METAR KCLE 241051Z 17005KT 10SM SCT060 BKN250 24/16 A3001 RMK AO2 SLP156 T02390161 $

10-Day Weather Forecast

Almanac

Astronomy

Jul. 24, 2016 Rise Set
Actual Time
Civil Twilight
Nautical Twilight
Astronomical Twilight
Moon
Length of Visible Light
Length of Day
Tomorrow will be .
, % of the Moon is Illuminated

Today's Extremes

State Highs State Lows

Community

WunderPhotos

Upload Photos

1,927,049 photos uploaded!

WunderBlog® & News

Nearby

Air Quality

  Air Quality AQ Index Pollutant
Not available.

Snow Depth

Station Depth Elevation

Earthquake Activity

City Distance Mag. Time & Date
Minimum magnitude displayed is 2.5.

Coastal Water Temperatures

Place Temperature

Stations

Nearby Weather Stations

Station Location Temp. Windchill Dew Point Humidity Wind Precip. Elev Updated Type
                   

Watches & Warnings

Heat Advisory
Issued: 3:32 AM EDT Jul. 24, 2016 – National Weather Service

... Heat advisory remains in effect until 8 PM EDT this evening...

* temperature... afternoon highs in the lower 90s.

* Maximum heat index values... near 100 degrees.

* Impacts... there is a risk of heat related illnesses for people
with prolonged outdoor exposure... especially those working in
the direct sunshine. Those without air conditioning are at
risk. The elderly and small children are especially
susceptible to the heat. Make sure outdoor pets have plenty of
water and shade.

Precautionary/preparedness actions...

A heat advisory means that the combination of high temperatures
and high humidity will combine to create a situation in which
heat illnesses are possible. Drink plenty of fluids... stay in an
air-conditioned room... stay out of the sun... and check up on
relatives and neighbors.